Latest Weather Observations for Karratha

IDW60801

Issued at 9:35 pm WST Tuesday 2 September 2014 (issued every 30 minutes, with the page automatically refreshed every 10 minutes)

About weather observations | Map of weather stations | Latest weather observations for WA | Other Formats
Station Details ID: 004083 Name: KARRATHA AERO Lat: -20.71 Lon: 116.77 Height: 5.3 m
Data from the previous 72 hours. | See also: Recent months at Karratha
Date/Time
WST
Temp
°C
App
Temp
°C
Dew
Point
Rel
Hum
%
Delta-T
°C
Wind Press
QNH
hPa
Press
MSL
hPa
Rain
since 9 am
mm
Dir
 
Spd
km/h
Gust
km/h
Spd
kts
Gust
kts
02/09:30pm 20.0 19.3 15.4 75 2.7 SW 13 15 7 8 1016.9 1016.9 0.0
02/09:00pm 20.6 20.3 14.5 68 3.6 WSW 9 13 5 7 1016.8 1016.8 0.0
02/08:30pm 23.6 22.1 14.3 56 5.5 WSW 15 19 8 10 1016.6 1016.6 0.0
02/08:00pm 23.9 22.6 13.7 53 6.0 W 13 15 7 8 1016.2 1016.2 0.0
02/07:30pm 24.4 24.0 15.3 57 5.5 WNW 11 15 6 8 1016.0 1016.0 0.0
02/07:00pm 24.8 23.4 13.4 49 6.6 WNW 13 17 7 9 1015.6 1015.6 0.0
02/06:30pm 25.4 23.3 13.6 48 6.9 WNW 17 19 9 10 1015.2 1015.2 0.0
02/06:00pm 26.9 23.7 8.4 31 10.0 WNW 15 19 8 10 1014.9 1014.9 0.0
02/05:30pm 28.8 24.3 4.3 21 12.5 WNW 17 22 9 12 1014.7 1014.7 0.0
02/05:00pm 29.9 24.9 3.8 19 13.3 W 19 20 10 11 1014.5 1014.5 0.0
02/04:30pm 30.5 25.9 3.5 18 13.7 W 17 22 9 12 1014.3 1014.3 0.0
02/04:00pm 30.8 26.2 3.8 18 13.8 WNW 17 20 9 11 1014.2 1014.2 0.0
02/03:30pm 31.5 26.8 0.8 14 15.0 WNW 15 19 8 10 1014.1 1014.1 0.0
02/03:00pm 31.6 27.0 -1.2 12 15.5 NW 13 19 7 10 1014.4 1014.4 0.0
02/02:30pm 31.1 27.6 1.4 15 14.6 WNW 9 15 5 8 1014.5 1014.5 0.0
02/02:00pm 30.9 27.6 4.6 19 13.7 N 11 17 6 9 1014.8 1014.8 0.0
02/01:30pm 30.9 27.5 6.0 21 13.2 NE 13 19 7 10 1015.3 1015.3 0.0
02/01:00pm 30.9 27.6 2.2 16 14.3 NNW 9 15 5 8 1015.6 1015.6 0.0
02/12:30pm 30.9 27.2 2.2 16 14.3 N 11 17 6 9 1016.1 1016.1 0.0
02/12:00pm 30.6 26.8 1.9 16 14.2 NNE 11 17 6 9 1016.4 1016.4 0.0
02/11:30am 30.7 26.9 2.0 16 14.2 N 11 15 6 8 1016.6 1016.6 0.0
02/11:00am 30.0 26.2 -0.4 14 14.4 N 9 15 5 8 1016.9 1016.9 0.0
02/10:30am 28.7 25.6 5.5 23 12.1 N 11 15 6 8 1017.2 1017.2 0.0
02/10:00am 27.8 24.3 3.5 21 12.1 NNW 11 15 6 8 1017.4 1017.4 0.0
02/09:30am 28.8 26.0 -0.4 15 13.7 SE 4 9 2 5 1017.4 1017.4 0.0
02/09:00am 26.4 23.3 0.2 18 12.2 SSE 6 9 3 5 1017.1 1017.1 0.0
02/08:30am 25.0 21.1 1.2 21 11.2 SSE 11 13 6 7 1016.9 - 0.0
02/08:00am 22.3 19.2 3.4 29 9.1 SSE 9 11 5 6 1016.4 - 0.0
02/07:30am 19.0 15.6 4.0 37 7.1 S 11 13 6 7 1016.1 - 0.0
02/07:00am 15.3 11.2 4.1 47 5.2 S 15 17 8 9 1015.8 - 0.0
02/06:30am 13.1 9.3 4.0 54 4.1 S 13 13 7 7 1015.3 - 0.0
02/06:00am 13.7 10.1 4.8 55 4.1 S 13 13 7 7 1015.2 1015.2 0.0
02/05:30am 14.0 10.6 6.1 59 3.8 S 13 13 7 7 1015.0 - 0.0
02/05:00am 14.2 11.0 6.8 61 3.6 S 13 15 7 8 1014.8 - 0.0
02/04:30am 14.3 11.7 7.8 65 3.2 S 11 13 6 7 1014.7 - 0.0
02/04:00am 14.7 12.9 9.5 71 2.7 S 9 11 5 6 1014.4 - 0.0
02/03:30am 15.1 15.4 10.9 76 2.2 CALM 0 0 0 0 1014.5 - 0.0
02/03:00am 15.7 15.0 11.5 76 2.3 S 6 7 3 4 1014.8 1014.8 0.0
02/02:30am 15.9 15.1 12.8 82 1.7 S 9 9 5 5 1015.0 - 0.0
02/02:00am 15.5 14.6 12.6 83 1.6 SSW 9 11 5 6 1015.1 - 0.0
02/01:30am 16.0 15.2 12.9 82 1.7 WSW 9 11 5 6 1015.2 - 0.0
02/01:00am 18.1 17.4 15.4 84 1.6 WSW 13 13 7 7 1015.4 - 0.0
02/12:30am 17.0 17.4 15.2 89 1.0 SSW 7 7 4 4 1015.7 - 0.0
02/12:00am 17.8 18.4 15.8 88 1.2 SSW 7 9 4 5 1015.6 1015.6 0.0
 
Date/Time
WST
Temp
°C
App
Temp
°C
Dew
Point
Rel
Hum
%
Delta-T
°C
Wind Press
QNH
hPa
Press
MSL
hPa
Rain
since 9 am
mm
Dir
 
Spd
km/h
Gust
km/h
Spd
kts
Gust
kts
01/11:30pm 18.0 18.1 16.5 91 0.9 SSW 11 13 6 7 1015.6 - 0.0
01/11:00pm 18.5 18.4 17.0 91 0.9 SW 13 15 7 8 1015.5 - 0.0
01/10:30pm 19.9 19.9 18.0 89 1.2 WSW 15 17 8 9 1015.7 - 0.0
01/10:00pm 19.7 19.5 16.7 83 1.8 WSW 13 15 7 8 1015.8 - 0.0
01/09:30pm 23.3 22.5 14.0 56 5.4 W 11 13 6 7 1015.7 - 0.0
01/09:00pm 23.0 23.4 17.2 70 3.6 WNW 11 15 6 8 1015.7 1015.7 0.0
01/08:30pm 23.8 23.7 15.0 57 5.3 WNW 9 13 5 7 1015.4 - 0.0
01/08:00pm 24.2 23.9 15.4 58 5.3 NNW 11 15 6 8 1015.1 - 0.0
01/07:30pm 24.1 24.4 16.1 61 4.9 NW 9 11 5 6 1014.9 - 0.0
01/07:00pm 24.6 24.8 15.8 58 5.3 NW 9 15 5 8 1014.4 - 0.0
01/06:30pm 25.1 24.0 15.4 55 5.9 NNW 15 19 8 10 1014.0 - 0.0
01/06:00pm 26.1 24.2 12.9 44 7.7 NNW 15 19 8 10 1013.9 1013.9 0.0
01/05:30pm 27.3 25.2 12.5 40 8.6 NNW 15 19 8 10 1013.8 - 0.0
01/05:00pm 28.6 26.0 10.8 33 10.1 NNW 15 19 8 10 1013.6 - 0.0
01/04:30pm 30.7 27.4 6.6 22 12.9 NW 13 17 7 9 1013.5 - 0.0
01/04:00pm 30.9 27.5 6.0 21 13.2 NNW 13 17 7 9 1013.3 - 0.0
01/03:30pm 31.3 27.6 6.4 21 13.4 NNW 15 19 8 10 1013.3 - 0.0
01/03:00pm 31.1 27.8 8.2 24 12.6 N 15 20 8 11 1013.3 1013.3 0.0
01/02:30pm 31.9 27.7 3.8 17 14.5 NNE 15 17 8 9 1013.4 - 0.0
01/02:00pm 31.6 27.4 3.6 17 14.4 NNE 15 19 8 10 1013.6 - 0.0
01/01:30pm 31.9 27.6 5.4 19 14.0 NNE 17 20 9 11 1013.9 - 0.0
01/01:00pm 32.7 28.6 4.5 17 14.8 N 15 20 8 11 1014.2 - 0.0
01/12:30pm 31.5 27.9 5.1 19 13.9 N 13 17 7 9 1014.7 - 0.0
01/12:00pm 31.8 28.0 3.8 17 14.4 N 13 17 7 9 1015.1 1015.1 0.0
01/11:30am 31.6 27.3 0.9 14 15.0 NNE 13 19 7 10 1015.2 - 0.0
01/11:00am 30.2 26.3 3.3 18 13.6 N 13 17 7 9 1015.5 - 0.0
01/10:30am 30.2 26.7 5.5 21 13.0 NNE 13 17 7 9 1015.7 - 0.0
01/10:00am 30.4 27.3 3.4 18 13.7 S 9 15 5 8 1015.8 - 0.0
01/09:30am 29.8 25.3 -0.5 14 14.3 SSE 13 19 7 10 1015.7 - 0.0
01/09:00am 27.0 23.5 1.4 19 12.2 S 9 13 5 7 1015.8 1015.8 0.0
01/08:30am 24.2 21.9 0.5 21 10.9 S 2 7 1 4 1015.7 - 0.0
01/08:00am 21.5 19.9 4.6 33 8.3 S 2 6 1 3 1015.4 - 0.0
01/07:30am 17.7 17.2 8.0 53 4.9 CALM 0 6 0 3 1015.2 - 0.0
01/07:00am 14.4 12.9 8.6 68 2.9 SSE 6 9 3 5 1015.0 - 0.0
01/06:30am 13.7 12.1 8.1 69 2.8 S 6 9 3 5 1014.7 - 0.0
01/06:00am 13.2 11.3 10.4 83 1.5 SSW 11 13 6 7 1014.3 1014.3 0.0
01/05:30am 12.5 11.5 10.9 90 0.8 SW 7 13 4 7 1014.2 - 0.0
01/05:00am 14.0 12.7 12.4 90 0.9 SW 11 11 6 6 1014.1 - 0.0
01/04:30am 13.8 12.1 11.3 85 1.3 SSW 11 11 6 6 1014.0 - 0.0
01/04:00am 14.4 13.3 11.9 85 1.3 SSW 9 9 5 5 1013.8 - 0.0
01/03:30am 14.8 14.5 13.2 90 0.9 SW 7 9 4 5 1013.7 - 0.0
01/03:00am 14.8 13.8 13.5 92 0.7 SSW 11 13 6 7 1014.0 1014.0 0.0
01/02:30am 14.8 13.3 13.2 90 0.9 SSW 13 15 7 8 1014.1 - 0.0
01/02:00am 16.0 15.0 14.5 91 0.9 SSW 13 13 7 7 1014.2 - 0.0
01/01:30am 15.9 16.2 15.1 95 0.5 SSW 7 9 4 5 1014.3 - 0.0
01/01:00am 16.0 15.9 14.9 93 0.6 SSW 9 11 5 6 1014.4 - 0.0
01/12:30am 20.4 21.3 18.5 89 1.2 W 11 13 6 7 1014.7 - 0.0
01/12:00am 21.1 22.9 20.3 95 0.5 W 11 13 6 7 1015.0 1015.0 0.0
 
Date/Time
WST
Temp
°C
App
Temp
°C
Dew
Point
Rel
Hum
%
Delta-T
°C
Wind Press
QNH
hPa
Press
MSL
hPa
Rain
since 9 am
mm
Dir
 
Spd
km/h
Gust
km/h
Spd
kts
Gust
kts
31/11:30pm 20.2 22.1 19.7 97 0.3 W 9 13 5 7 1014.9 - 0.0
31/11:00pm 18.5 19.9 17.7 95 0.5 SW 7 11 4 6 1015.0 - 0.0
31/10:30pm 18.8 19.5 18.0 95 0.5 SW 11 17 6 9 1014.9 - 0.0
31/10:00pm 18.3 18.9 16.8 91 0.9 SSW 9 11 5 6 1015.0 - 0.0
31/09:30pm 19.7 20.0 18.0 90 1.0 SSW 13 19 7 10 1015.1 - 0.0
31/09:00pm 21.3 22.3 16.9 76 2.7 SW 7 9 4 5 1015.0 1015.0 0.0
31/08:30pm 22.9 23.8 18.4 76 2.8 NW 11 13 6 7 1014.8 - 0.0
31/08:00pm 23.4 24.3 19.3 78 2.6 NW 13 15 7 8 1014.5 - 0.0
31/07:30pm 23.3 24.1 19.9 81 2.2 NNW 15 17 8 9 1014.2 - 0.0
31/07:00pm 23.7 24.7 19.4 77 2.8 NNW 13 15 7 8 1013.9 - 0.0
31/06:30pm 24.5 25.7 18.2 68 4.0 NW 9 13 5 7 1013.6 - 0.0
31/06:00pm 25.3 25.7 17.2 61 5.0 NNW 11 13 6 7 1013.3 1013.3 0.0
31/05:30pm 26.2 25.1 15.3 51 6.6 NNW 15 20 8 11 1013.2 - 0.0
31/05:00pm 27.5 25.7 14.5 45 7.8 NNW 17 22 9 12 1012.9 - 0.0
31/04:30pm 28.4 26.5 14.3 42 8.5 NNW 17 20 9 11 1013.1 - 0.0
31/04:00pm 28.6 26.9 14.8 43 8.4 NNW 17 20 9 11 1013.1 - 0.0
31/03:30pm 29.0 26.8 14.4 41 8.8 NNW 19 24 10 13 1013.1 - 0.0
31/03:00pm 29.9 26.9 11.9 33 10.5 NNW 19 24 10 13 1013.1 1013.1 0.0
31/02:30pm 31.7 27.4 5.3 19 13.9 N 17 20 9 11 1013.1 - 0.0
31/02:00pm 32.9 28.2 2.9 15 15.3 NE 17 20 9 11 1013.1 - 0.0
31/01:30pm 33.0 28.1 -7.3 7 17.4 NE 11 17 6 9 1013.5 - 0.0
31/01:00pm 32.4 27.8 -7.8 7 17.1 ENE 9 15 5 8 1013.8 - 0.0
31/12:30pm 32.4 27.3 -9.7 6 17.4 NW 11 19 6 10 1014.2 - 0.0
31/12:00pm 33.1 27.6 -9.2 6 17.7 WNW 13 19 7 10 1014.5 1014.5 0.0
31/11:30am 31.8 26.3 -10.2 6 17.1 W 13 17 7 9 1014.9 - 0.0
31/11:00am 31.5 25.4 -12.6 5 17.2 W 15 19 8 10 1015.2 - 0.0
31/10:30am 30.2 26.9 2.5 17 13.8 NW 9 13 5 7 1015.5 - 0.0
31/10:00am 28.8 27.1 8.5 28 11.1 SW 7 11 4 6 1015.9 - 0.0
31/09:30am 27.7 26.1 4.7 23 11.7 NE 2 6 1 3 1016.1 - 0.0
31/09:00am 24.7 25.0 10.9 42 7.7 CALM 0 6 0 3 1016.1 1016.1 0.0
31/08:30am 23.2 22.8 8.1 38 8.0 CALM 0 0 0 0 1016.0 - 0.0
31/08:00am 20.0 20.8 12.7 63 4.1 CALM 0 0 0 0 1015.9 - 0.0
31/07:30am 16.7 17.0 10.8 68 3.2 CALM 0 0 0 0 1015.6 - 0.0
31/07:00am 13.4 11.7 8.3 71 2.5 SSW 7 7 4 4 1015.2 - 0.0
31/06:30am 12.6 10.8 7.9 73 2.3 SW 7 9 4 5 1015.0 - 0.0
31/06:00am 13.0 11.1 8.9 76 2.1 SW 9 9 5 5 1014.8 1014.8 0.0
31/05:30am 12.2 10.0 7.7 74 2.2 SSW 9 13 5 7 1014.7 - 0.0
31/05:00am 13.6 11.2 10.2 80 1.8 SW 13 13 7 7 1014.6 - 0.0
31/04:30am 13.7 11.7 11.4 86 1.2 SW 13 15 7 8 1014.7 - 0.0
31/04:00am 13.3 11.9 11.0 86 1.2 SSW 9 11 5 6 1014.6 - 0.0
31/03:30am 13.4 11.7 11.3 87 1.1 SSW 11 11 6 6 1014.6 - 0.0
31/03:00am 14.1 13.3 11.8 86 1.2 SW 7 9 4 5 1014.7 1014.7 0.0
31/02:30am 14.4 13.3 12.1 86 1.2 SW 9 11 5 6 1014.9 - 0.0
31/02:00am 16.8 16.5 14.3 85 1.4 WSW 9 11 5 6 1015.0 - 0.0
31/01:30am 16.5 15.8 14.2 86 1.3 SW 11 13 6 7 1015.2 - 0.0
31/01:00am 17.2 16.6 14.7 85 1.4 SW 11 13 6 7 1015.4 - 0.0
31/12:30am 16.9 17.0 15.4 91 0.9 WSW 9 11 5 6 1015.7 - 0.0
31/12:00am 17.4 18.0 15.7 90 1.0 WSW 7 9 4 5 1015.9 1015.9 0.0
 
Date/Time
WST
Temp
°C
App
Temp
°C
Dew
Point
Rel
Hum
%
Delta-T
°C
Wind Press
QNH
hPa
Press
MSL
hPa
Rain
since 9 am
mm
Dir
 
Spd
km/h
Gust
km/h
Spd
kts
Gust
kts
30/11:30pm 17.5 17.1 16.2 92 0.8 SW 13 15 7 8 1016.0 - 0.0
30/11:00pm 17.1 17.0 16.1 94 0.6 SSW 11 15 6 8 1016.2 - 0.0
30/10:30pm 17.6 17.6 16.3 92 0.8 SW 11 11 6 6 1016.2 - 0.0
30/10:00pm 18.5 19.2 17.0 91 0.9 SW 9 11 5 6 1016.3 - 0.0

Other Formats:

Comma delimited format used in spreadsheet applications
http://www.bom.gov.au/fwo/IDW60801/IDW60801.95307.axf

JavaScript Object Notation format (JSON) in row-major order
http://www.bom.gov.au/fwo/IDW60801/IDW60801.95307.json